Time;durP1;ratioP1;P1;durP2;ratioP2;P2;SDS_P1;SDS_P2;PMS_P1;PMS_P2;Temp;Humidity;BMP_temperature;BMP_pressure;BME280_temperature;BME280_humidity;BME280_pressure;Samples;Min_cycle;Max_cycle;Signal;HPM_P1;HPM_P2
2021/11/29 00:02:04;;;;;;;8.38;3.95;;;;;;;13.04;80.02;95337.41;5024437;28;20055;-94
2021/11/29 00:04:29;;;;;;;12.02;6.25;;;;;;;13.00;80.67;95302.03;5042873;28;20024;-96
2021/11/29 00:06:55;;;;;;;10.73;4.85;;;;;;;13.21;80.20;95309.63;5024176;28;20036;-95
2021/11/29 00:09:21;;;;;;;7.63;3.65;;;;;;;13.46;79.32;95315.84;5024419;28;20205;-95
2021/11/29 00:11:50;;;;;;;4.00;2.47;;;;;;;13.65;78.39;95320.06;5025671;28;20023;-93
2021/11/29 00:14:15;;;;;;;6.57;3.00;;;;;;;13.65;78.23;95307.47;5041700;28;20029;-94
2021/11/29 00:20:05;;;;;;;4.07;2.10;;;;;;;13.69;77.84;95302.59;5059343;28;20476;-95
2021/11/29 00:22:31;;;;;;;1.55;1.20;;;;;;;13.86;78.57;95315.00;5040922;28;20488;-94
2021/11/29 00:24:57;;;;;;;3.60;2.13;;;;;;;13.46;80.08;95254.94;5027077;28;20033;-95
2021/11/29 00:27:23;;;;;;;5.30;2.22;;;;;;;13.63;81.42;95309.47;5025108;28;20032;-94
2021/11/29 00:29:49;;;;;;;6.07;2.30;;;;;;;13.51;82.30;95302.75;5023838;28;20514;-94
2021/11/29 00:32:14;;;;;;;3.70;1.92;;;;;;;13.45;82.14;95306.94;5027425;28;20131;-96
2021/11/29 00:34:49;;;;;;;4.60;2.67;;;;;;;13.65;82.67;95338.84;5029934;28;20503;-95
2021/11/29 00:37:15;;;;;;;6.55;2.30;;;;;;;13.43;83.43;95319.72;5026488;28;20009;-94
2021/11/29 00:39:40;;;;;;;3.97;2.30;;;;;;;13.44;82.92;95305.25;5027370;28;20021;-93
2021/11/29 00:42:07;;;;;;;5.25;2.42;;;;;;;13.45;82.55;95295.38;5025361;28;20028;-93
2021/11/29 00:44:32;;;;;;;3.05;1.83;;;;;;;13.66;81.52;95311.00;5026731;28;20013;-93
2021/11/29 00:46:58;;;;;;;6.70;3.25;;;;;;;13.24;81.18;95234.13;5025206;28;20163;-94
2021/11/29 00:56:07;;;;;;;4.18;2.20;;;;;;;13.43;80.15;95232.94;5061556;28;20051;-94
2021/11/29 00:58:33;;;;;;;4.18;2.80;;;;;;;13.38;80.76;95222.69;5025734;28;20130;-94
2021/11/29 01:00:58;;;;;;;4.28;3.00;;;;;;;13.62;81.64;95285.47;5026285;28;20045;-95
2021/11/29 01:03:24;;;;;;;4.38;2.78;;;;;;;13.27;81.93;95249.06;5023891;28;20495;-95
2021/11/29 01:05:50;;;;;;;5.47;3.30;;;;;;;13.33;83.12;95288.66;5022560;28;20086;-94
2021/11/29 01:08:15;;;;;;;6.13;2.90;;;;;;;13.21;84.32;95276.56;5024033;28;20029;-94
2021/11/29 01:10:41;;;;;;;4.00;2.92;;;;;;;12.83;85.57;95210.91;5044103;28;20029;-94
2021/11/29 01:13:10;;;;;;;6.25;3.30;;;;;;;13.20;87.45;95277.56;5026924;28;20036;-94
2021/11/29 01:15:38;;;;;;;5.80;3.38;;;;;;;12.64;89.56;95192.47;5027891;28;20063;-95
2021/11/29 01:18:11;;;;;;;8.35;2.67;;;;;;;12.99;89.54;95243.13;5027476;28;20530;-95
2021/11/29 01:20:40;;;;;;;7.18;2.83;;;;;;;13.06;90.09;95265.63;5043249;28;20063;-94
2021/11/29 01:23:06;;;;;;;6.95;2.92;;;;;;;12.71;93.72;95247.97;5043434;28;20025;-95
2021/11/29 01:25:37;;;;;;;5.95;2.90;;;;;;;12.76;96.33;95276.97;5043436;28;20035;-93
2021/11/29 01:28:04;;;;;;;5.97;2.60;;;;;;;12.54;96.69;95256.97;5045714;28;20055;-95
2021/11/29 01:30:33;;;;;;;0.10;0.10;;;;;;;12.47;100.00;95282.75;5046842;28;20038;-96
2021/11/29 01:32:59;;;;;;;0.38;0.30;;;;;;;12.28;100.00;95267.75;5047684;28;20056;-95
2021/11/29 01:35:28;;;;;;;0.45;0.45;;;;;;;12.03;100.00;95246.41;5027175;28;20024;-95
2021/11/29 01:37:54;;;;;;;0.45;0.45;;;;;;;12.12;100.00;95270.38;5027381;28;20028;-95
2021/11/29 01:40:20;;;;;;;0.10;0.10;;;;;;;12.23;100.00;95306.78;5025977;28;20086;-96
2021/11/29 01:43:01;;;;;;;0.20;0.20;;;;;;;11.80;100.00;95257.66;5024129;28;20033;-94
2021/11/29 01:52:11;;;;;;;0.43;0.43;;;;;;;11.95;100.00;95298.09;5061213;28;20408;-94
2021/11/29 01:54:36;;;;;;;0.25;0.25;;;;;;;11.75;100.00;95259.13;5025898;28;20017;-93
2021/11/29 01:57:04;;;;;;;0.00;0.00;;;;;;;11.67;100.00;95234.94;5041625;28;20013;-96
2021/11/29 01:59:29;;;;;;;0.98;0.55;;;;;;;11.82;100.00;95261.00;5024545;28;20547;-93
2021/11/29 02:01:55;;;;;;;1.48;0.55;;;;;;;11.66;100.00;95265.41;5022733;28;20051;-95
2021/11/29 02:04:21;;;;;;;0.20;0.15;;;;;;;11.60;100.00;95255.31;5023259;28;20051;-94
2021/11/29 02:06:46;;;;;;;0.13;0.13;;;;;;;11.42;100.00;95216.06;5023702;28;20037;-94
2021/11/29 02:09:13;;;;;;;0.52;0.15;;;;;;;11.50;100.00;95227.81;5021840;28;20025;-95
2021/11/29 02:11:39;;;;;;;0.13;0.13;;;;;;;11.35;100.00;95217.66;5023865;28;20106;-93
2021/11/29 02:14:06;;;;;;;0.63;0.47;;;;;;;11.60;100.00;95244.59;5041141;28;20033;-93
2021/11/29 02:16:32;;;;;;;0.20;0.20;;;;;;;11.53;100.00;95233.69;5023659;28;20033;-94
2021/11/29 02:18:58;;;;;;;0.00;0.00;;;;;;;11.48;100.00;95230.63;5024339;28;20025;-95
2021/11/29 02:21:26;;;;;;;0.10;0.10;;;;;;;11.30;100.00;95208.44;5026023;28;20025;-94
2021/11/29 02:23:57;;;;;;;1.13;0.60;;;;;;;11.37;100.00;95213.03;5025745;28;20032;-93
2021/11/29 02:26:26;;;;;;;0.38;0.32;;;;;;;11.40;100.00;95223.41;5026053;28;20032;-91
2021/11/29 02:28:56;;;;;;;0.68;0.47;;;;;;;11.36;100.00;95211.34;5042489;28;20373;-92
2021/11/29 02:31:25;;;;;;;0.10;0.10;;;;;;;11.38;100.00;95220.03;5024330;28;20025;-93
2021/11/29 02:33:50;;;;;;;3.13;1.05;;;;;;;11.27;100.00;95201.56;5026911;28;20033;-92
2021/11/29 02:36:16;;;;;;;0.22;0.22;;;;;;;11.37;100.00;95223.72;5026251;28;20032;-93
2021/11/29 02:38:45;;;;;;;0.80;0.70;;;;;;;11.31;100.00;95212.81;5026034;28;20475;-93
2021/11/29 02:41:11;;;;;;;0.68;0.63;;;;;;;11.15;100.00;95180.56;5029259;28;20492;-94
2021/11/29 02:43:37;;;;;;;0.57;0.40;;;;;;;11.18;100.00;95175.75;5027440;28;20032;-94
2021/11/29 02:46:03;;;;;;;1.30;0.77;;;;;;;11.35;100.00;95193.59;5028386;28;20029;-94
2021/11/29 02:48:49;;;;;;;2.45;1.13;;;;;;;10.99;100.00;95154.56;5027091;28;20484;-94
2021/11/29 02:51:25;;;;;;;0.88;0.45;;;;;;;11.05;100.00;95177.16;5025923;28;20110;-94
2021/11/29 02:53:55;;;;;;;1.25;0.70;;;;;;;11.07;100.00;95189.41;5027224;28;20029;-94
2021/11/29 02:56:21;;;;;;;0.35;0.35;;;;;;;10.86;100.00;95149.59;5027829;28;20124;-95
2021/11/29 02:58:47;;;;;;;1.65;0.85;;;;;;;10.76;100.00;95150.72;5026703;28;20107;-94
2021/11/29 03:01:13;;;;;;;1.60;1.02;;;;;;;11.01;100.00;95179.31;5025850;28;20055;-92
2021/11/29 03:03:47;;;;;;;0.55;0.55;;;;;;;10.86;100.00;95162.97;5025686;28;20025;-94
2021/11/29 03:06:12;;;;;;;1.40;1.05;;;;;;;10.83;100.00;95162.44;5025269;28;20416;-94
2021/11/29 03:12:04;;;;;;;0.63;0.63;;;;;;;10.86;100.00;95170.16;5060268;28;20036;-94
2021/11/29 03:14:30;;;;;;;2.05;0.68;;;;;;;10.78;100.00;95159.41;5027982;28;20021;-95
2021/11/29 03:16:57;;;;;;;0.25;0.25;;;;;;;10.74;100.00;95160.69;5026751;28;20487;-93
2021/11/29 03:19:29;;;;;;;0.68;0.52;;;;;;;10.74;100.00;95166.03;5026282;28;20025;-94
2021/11/29 03:21:55;;;;;;;0.22;0.22;;;;;;;10.83;100.00;95181.16;5027251;28;20025;-94
2021/11/29 03:24:21;;;;;;;0.30;0.30;;;;;;;10.71;100.00;95163.69;5027446;28;20025;-95
2021/11/29 03:26:46;;;;;;;0.57;0.57;;;;;;;10.63;100.00;95144.91;5026549;28;20092;-94
2021/11/29 03:29:15;;;;;;;0.55;0.25;;;;;;;10.59;100.00;95131.00;5027663;28;20029;-94
2021/11/29 03:31:43;;;;;;;0.35;0.35;;;;;;;11.05;100.00;95201.22;5029828;28;20079;-92
2021/11/29 03:34:11;;;;;;;2.60;2.38;;;;;;;10.72;100.00;95168.88;5031958;28;20029;-93
2021/11/29 03:36:39;;;;;;;1.25;1.15;;;;;;;11.05;100.00;95219.94;5032170;28;20029;-94
2021/11/29 03:39:10;;;;;;;2.10;1.35;;;;;;;11.13;100.00;95242.28;5029883;28;20021;-94
2021/11/29 03:45:00;;;;;;;1.05;0.77;;;;;;;11.26;100.00;95257.91;5059744;28;20520;-93
2021/11/29 03:47:26;;;;;;;2.55;1.10;;;;;;;11.19;100.00;95236.31;5024459;28;20051;-93
2021/11/29 03:49:52;;;;;;;3.30;1.50;;;;;;;11.31;100.00;95253.78;5023988;28;20024;-92
2021/11/29 03:52:17;;;;;;;2.53;1.00;;;;;;;11.44;100.00;95282.81;5022479;28;20067;-91
2021/11/29 03:54:43;;;;;;;0.40;0.40;;;;;;;11.37;100.00;95279.09;5022062;28;20572;-92
2021/11/29 03:57:09;;;;;;;3.17;1.48;;;;;;;11.33;100.00;95251.78;5036475;28;20029;-91
2021/11/29 03:59:37;;;;;;;1.77;1.27;;;;;;;11.38;100.00;95257.50;5024039;28;20029;-92
2021/11/29 04:02:03;;;;;;;0.63;0.63;;;;;;;11.11;100.00;95244.25;5008964;28;20056;-90
2021/11/29 04:04:29;;;;;;;1.60;1.27;;;;;;;11.18;100.00;95242.63;5006405;28;20030;-90
2021/11/29 04:06:54;;;;;;;1.05;0.85;;;;;;;11.11;100.00;95251.44;5004433;28;20029;-92
2021/11/29 04:09:20;;;;;;;4.07;1.67;;;;;;;11.15;100.00;95263.50;5003829;28;20512;-91
2021/11/29 04:11:45;;;;;;;0.52;0.52;;;;;;;11.10;100.00;95229.22;5003728;28;20624;-91
2021/11/29 04:14:11;;;;;;;0.93;0.93;;;;;;;11.07;100.00;95236.69;5002738;28;20470;-91
2021/11/29 04:16:37;;;;;;;0.20;0.20;;;;;;;11.09;100.00;95227.53;4997428;28;20033;-91
2021/11/29 04:19:03;;;;;;;0.20;0.20;;;;;;;11.03;100.00;95219.28;5011017;28;20052;-90
2021/11/29 04:21:29;;;;;;;0.52;0.30;;;;;;;11.02;100.00;95201.53;5004484;28;20032;-90
2021/11/29 04:23:55;;;;;;;1.30;1.20;;;;;;;11.04;100.00;95215.63;5004668;28;20018;-91
2021/11/29 04:26:20;;;;;;;0.32;0.32;;;;;;;10.96;100.00;95200.31;5005249;28;20037;-91
2021/11/29 04:28:49;;;;;;;0.43;0.43;;;;;;;11.05;100.00;95220.78;5003893;28;20025;-91
2021/11/29 04:31:16;;;;;;;0.20;0.20;;;;;;;10.83;100.00;95191.84;5021298;28;20029;-89
2021/11/29 04:33:42;;;;;;;0.25;0.25;;;;;;;10.96;100.00;95207.50;5003780;28;20025;-90
2021/11/29 04:36:07;;;;;;;0.40;0.20;;;;;;;10.90;100.00;95214.31;5028599;28;20029;-82
2021/11/29 04:38:33;;;;;;;0.10;0.10;;;;;;;10.94;100.00;95226.41;5004831;28;20022;-86
2021/11/29 04:40:59;;;;;;;2.08;0.43;;;;;;;11.02;100.00;95244.34;5020874;28;20033;-93
2021/11/29 04:43:25;;;;;;;0.00;0.00;;;;;;;10.88;100.00;95216.31;5009064;28;20076;-89
2021/11/29 04:45:50;;;;;;;4.15;1.08;;;;;;;10.97;100.00;95204.69;5002975;28;20048;-89
2021/11/29 04:48:16;;;;;;;0.20;0.20;;;;;;;10.93;100.00;95211.34;5007025;28;20036;-91
2021/11/29 04:50:42;;;;;;;0.20;0.20;;;;;;;10.85;100.00;95195.22;5023115;28;20032;-91
2021/11/29 04:53:07;;;;;;;0.20;0.20;;;;;;;10.89;100.00;95170.69;5006509;28;20068;-90
2021/11/29 04:55:33;;;;;;;0.17;0.17;;;;;;;10.92;100.00;95168.72;5005860;28;20029;-90
2021/11/29 04:57:59;;;;;;;0.28;0.28;;;;;;;11.04;100.00;95200.41;5005763;28;20025;-90
2021/11/29 05:00:25;;;;;;;0.17;0.17;;;;;;;10.94;100.00;95166.72;5005692;28;20049;-90
2021/11/29 05:02:51;;;;;;;0.30;0.30;;;;;;;11.05;100.00;95188.69;5021529;28;20096;-89
2021/11/29 05:05:26;;;;;;;0.13;0.13;;;;;;;11.06;100.00;95176.16;5022257;28;20032;-90
2021/11/29 05:07:54;;;;;;;0.75;0.60;;;;;;;10.92;100.00;95155.34;5023274;28;20024;-89
2021/11/29 05:10:20;;;;;;;1.13;1.00;;;;;;;11.00;100.00;95177.63;5024040;28;20059;-92
2021/11/29 05:12:49;;;;;;;0.80;0.80;;;;;;;10.86;100.00;95170.16;5026009;28;20087;-89
2021/11/29 05:15:17;;;;;;;2.92;0.63;;;;;;;11.06;100.00;95192.22;5025171;28;20134;-89
2021/11/29 05:17:55;;;;;;;1.88;0.80;;;;;;;10.98;100.00;95200.19;5022842;28;20126;-90
2021/11/29 05:20:21;;;;;;;0.85;0.85;;;;;;;11.03;100.00;95206.75;5026485;28;20031;-91
2021/11/29 05:22:46;;;;;;;0.75;0.65;;;;;;;10.86;100.00;95181.69;5026661;28;20537;-91
2021/11/29 05:25:18;;;;;;;4.93;1.63;;;;;;;10.92;100.00;95185.56;5026549;28;20112;-90
2021/11/29 05:27:57;;;;;;;0.90;0.90;;;;;;;11.16;100.00;95231.28;5038072;28;20032;-85
2021/11/29 05:30:22;;;;;;;2.50;1.40;;;;;;;11.04;100.00;95219.13;5021841;28;20033;-89
2021/11/29 05:32:50;;;;;;;6.13;2.22;;;;;;;11.00;100.00;95204.38;5021814;28;20035;-90
2021/11/29 05:35:16;;;;;;;1.30;1.25;;;;;;;10.92;100.00;95192.78;5022542;28;20132;-90
2021/11/29 05:37:59;;;;;;;4.35;2.65;;;;;;;10.88;100.00;95192.25;5026852;28;20037;-88
2021/11/29 05:40:43;;;;;;;7.00;3.97;;;;;;;10.84;100.00;95214.94;5022981;28;20529;-90
2021/11/29 05:43:18;;;;;;;9.70;4.53;;;;;;;10.79;100.00;95223.44;5025692;28;20140;-89
2021/11/29 05:46:09;;;;;;;7.32;2.97;;;;;;;10.84;100.00;95244.34;5020705;28;20053;-91
2021/11/29 05:48:44;;;;;;;3.35;2.50;;;;;;;10.76;100.00;95247.81;5030145;28;20086;-91
2021/11/29 05:51:18;;;;;;;2.92;1.60;;;;;;;10.74;100.00;95238.22;5024540;28;20048;-90
2021/11/29 05:53:47;;;;;;;1.35;0.82;;;;;;;10.45;100.00;95186.84;5021823;28;20064;-91
2021/11/29 05:56:19;;;;;;;2.92;1.23;;;;;;;10.78;100.00;95253.84;5023841;28;20403;-90
2021/11/29 05:58:48;;;;;;;2.03;1.83;;;;;;;10.37;100.00;95194.78;5032472;28;20036;-90
2021/11/29 06:01:17;;;;;;;2.15;1.40;;;;;;;10.44;100.00;95187.81;5028417;28;20049;-90
2021/11/29 06:04:13;;;;;;;2.60;2.40;;;;;;;10.49;100.00;95197.06;5029487;28;20056;-91
2021/11/29 06:06:42;;;;;;;4.13;1.27;;;;;;;10.47;100.00;95190.19;5039502;28;20037;-89
2021/11/29 06:09:18;;;;;;;4.65;2.53;;;;;;;10.64;100.00;95229.47;5038414;28;20025;-92
2021/11/29 06:11:44;;;;;;;6.03;1.98;;;;;;;10.36;100.00;95172.56;5034381;28;20036;-90
2021/11/29 06:14:25;;;;;;;15.60;6.25;;;;;;;10.54;100.00;95229.53;5030752;28;20083;-92
2021/11/29 06:16:54;;;;;;;7.68;4.18;;;;;;;10.34;100.00;95204.78;5013264;28;20096;-90
2021/11/29 06:19:26;;;;;;;3.38;2.90;;;;;;;10.37;100.00;95221.50;5011192;28;20041;-90
2021/11/29 06:21:52;;;;;;;4.75;3.42;;;;;;;10.61;100.00;95261.84;5027779;28;20412;-87
2021/11/29 06:24:20;;;;;;;9.93;4.57;;;;;;;10.48;100.00;95248.00;5024148;28;20036;-88
2021/11/29 06:26:46;;;;;;;15.13;4.68;;;;;;;10.61;100.00;95256.50;5034688;28;20488;-81
2021/11/29 06:29:12;;;;;;;2.10;1.95;;;;;;;10.63;100.00;95267.88;5045744;28;20060;-81
2021/11/29 06:31:38;;;;;;;11.68;4.72;;;;;;;10.61;100.00;95267.19;5048409;28;20107;-83
2021/11/29 06:34:04;;;;;;;6.82;4.55;;;;;;;10.71;100.00;95283.97;5014605;28;20060;-82
2021/11/29 06:36:30;;;;;;;13.70;6.65;;;;;;;10.71;100.00;95287.50;5013454;28;20029;-79
2021/11/29 06:38:58;;;;;;;3.10;2.33;;;;;;;10.76;100.00;95295.94;5030097;28;20104;-82
2021/11/29 06:41:24;;;;;;;1.33;1.23;;;;;;;10.84;100.00;95289.81;5013367;28;20036;-82
2021/11/29 06:43:50;;;;;;;5.68;3.72;;;;;;;10.89;100.00;95292.84;5013294;28;20029;-82
2021/11/29 06:46:16;;;;;;;6.47;3.90;;;;;;;11.06;100.00;95294.72;5013358;28;20087;-82
2021/11/29 06:48:42;;;;;;;6.50;3.88;;;;;;;11.20;100.00;95298.66;5029932;28;20037;-82
2021/11/29 06:51:08;;;;;;;15.65;6.93;;;;;;;11.26;100.00;95301.56;5030172;28;20473;-82
2021/11/29 06:53:34;;;;;;;25.20;8.38;;;;;;;11.32;100.00;95321.53;5013629;28;20028;-80
2021/11/29 06:56:01;;;;;;;4.22;3.35;;;;;;;11.20;100.00;95294.16;5030013;28;20056;-81
2021/11/29 06:58:27;;;;;;;4.40;2.78;;;;;;;11.14;100.00;95292.09;5029885;28;20071;-81
2021/11/29 07:00:53;;;;;;;1.67;1.58;;;;;;;11.16;100.00;95300.81;5029457;28;20057;-81
2021/11/29 07:03:19;;;;;;;7.35;5.25;;;;;;;11.17;100.00;95302.50;5029702;28;20038;-81
2021/11/29 07:05:45;;;;;;;7.80;4.97;;;;;;;11.30;100.00;95302.94;5031246;28;20021;-80
2021/11/29 07:26:43;;;;;;;6.77;1.63;;;;;;;11.89;100.00;95325.50;4750835;27;10385768;-82
2021/11/29 07:38:49;;;;;;;4.33;2.60;;;;;;;11.77;100.00;95341.00;5041217;28;20553;-82
2021/11/29 07:41:15;;;;;;;6.13;1.65;;;;;;;11.73;100.00;95344.13;5042116;28;20062;-82
2021/11/29 07:43:40;;;;;;;1.38;1.27;;;;;;;11.83;100.00;95347.56;5073437;28;20025;-82
2021/11/29 07:46:06;;;;;;;4.10;1.50;;;;;;;12.00;100.00;95364.59;5072654;28;20028;-82
2021/11/29 07:48:32;;;;;;;1.25;1.05;;;;;;;11.96;100.00;95353.34;5064454;28;20507;-81
2021/11/29 07:50:57;;;;;;;0.75;0.63;;;;;;;11.95;100.00;95365.91;5047151;28;20025;-82
2021/11/29 07:53:23;;;;;;;1.73;1.27;;;;;;;11.84;100.00;95379.53;5073120;28;20082;-82
2021/11/29 07:55:49;;;;;;;1.77;1.67;;;;;;;11.76;100.00;95394.69;5030585;28;20082;-82
2021/11/29 07:58:17;;;;;;;5.97;3.90;;;;;;;11.83;100.00;95414.53;5062227;28;20479;-82
2021/11/29 08:00:43;;;;;;;3.15;2.10;;;;;;;11.59;100.00;95423.16;5067117;28;20352;-80
2021/11/29 08:03:09;;;;;;;4.55;3.05;;;;;;;11.50;100.00;95428.59;5059036;28;20086;-82
2021/11/29 08:05:35;;;;;;;4.88;2.53;;;;;;;11.47;100.00;95415.50;5031371;28;20033;-82
2021/11/29 08:08:02;;;;;;;1.90;1.48;;;;;;;11.58;100.00;95429.50;5060824;28;20487;-82
2021/11/29 08:29:25;;;;;;;1.98;1.77;;;;;;;9.76;100.00;95483.66;5085781;28;20094;-75
2021/11/29 08:34:18;;;;;;;2.07;1.10;;;;;;;9.60;100.00;95512.72;5065064;28;20083;-75
2021/11/29 08:36:43;;;;;;;0.52;0.52;;;;;;;9.61;100.00;95531.28;5067110;28;20040;-75
2021/11/29 08:39:09;;;;;;;0.65;0.65;;;;;;;9.53;100.00;95515.13;5088146;28;20386;-75
2021/11/29 08:41:35;;;;;;;0.95;0.93;;;;;;;9.41;100.00;95508.25;5087663;28;20036;-75
2021/11/29 08:44:03;;;;;;;0.35;0.35;;;;;;;9.30;100.00;95523.50;5086980;28;20550;-75
2021/11/29 08:46:29;;;;;;;2.92;1.40;;;;;;;9.14;100.00;95532.88;5104311;28;20039;-74
2021/11/29 08:48:55;;;;;;;1.55;1.33;;;;;;;9.04;100.00;95518.69;5103658;28;20405;-75
2021/11/29 08:51:21;;;;;;;1.58;1.48;;;;;;;9.02;100.00;95499.28;5086859;28;20036;-74
2021/11/29 08:53:47;;;;;;;1.40;1.17;;;;;;;8.96;100.00;95505.16;5103848;28;20060;-75
2021/11/29 08:56:12;;;;;;;0.98;0.65;;;;;;;8.89;100.00;95493.34;5084578;28;20062;-75
2021/11/29 08:58:38;;;;;;;0.65;0.65;;;;;;;8.75;100.00;95498.22;5083723;28;20135;-75
2021/11/29 09:01:04;;;;;;;0.68;0.60;;;;;;;8.48;100.00;95510.31;5083444;28;20036;-74
2021/11/29 09:03:31;;;;;;;0.57;0.57;;;;;;;8.31;100.00;95544.66;5083569;28;20530;-75
2021/11/29 09:05:57;;;;;;;4.75;0.90;;;;;;;8.26;100.00;95616.09;5083312;28;20407;-74
2021/11/29 09:08:22;;;;;;;0.38;0.38;;;;;;;8.15;100.00;95647.13;5079634;28;20034;-73
2021/11/29 09:10:49;;;;;;;0.60;0.60;;;;;;;8.16;100.00;95666.59;5095592;28;20036;-74
2021/11/29 09:13:15;;;;;;;1.02;0.57;;;;;;;8.31;100.00;95680.50;5083266;28;20028;-74
2021/11/29 09:15:42;;;;;;;1.85;1.30;;;;;;;8.36;100.00;95675.66;5066295;28;20073;-74
2021/11/29 09:18:08;;;;;;;3.15;1.60;;;;;;;8.46;100.00;95681.91;5083151;28;20484;-73
2021/11/29 09:21:31;;;;;;;2.63;1.50;;;;;;;8.08;100.00;95663.75;5084981;28;20060;-86
2021/11/29 09:24:18;;;;;;;1.17;1.10;;;;;;;8.23;100.00;95693.56;5087225;28;20511;-84
2021/11/29 09:27:00;;;;;;;1.65;0.60;;;;;;;8.21;100.00;95688.41;5087361;28;20616;-84
2021/11/29 09:29:35;;;;;;;0.35;0.35;;;;;;;8.26;100.00;95690.66;5072297;28;20124;-85
2021/11/29 09:32:12;;;;;;;1.02;1.02;;;;;;;8.26;100.00;95707.50;5087857;28;20415;-86
2021/11/29 09:34:59;;;;;;;3.83;1.05;;;;;;;8.12;100.00;95689.97;5070577;28;20347;-86
2021/11/29 09:37:29;;;;;;;1.30;1.23;;;;;;;7.94;100.00;95654.22;5073746;28;20506;-85
2021/11/29 09:40:11;;;;;;;0.25;0.25;;;;;;;8.03;100.00;95696.06;5057949;28;20124;-85
2021/11/29 09:42:40;;;;;;;0.40;0.40;;;;;;;7.59;100.00;95640.28;5066930;28;20043;-86
2021/11/29 09:45:10;;;;;;;0.20;0.20;;;;;;;7.66;100.00;95624.69;5075659;28;20039;-85
2021/11/29 09:47:39;;;;;;;0.50;0.50;;;;;;;7.52;100.00;95593.88;5077636;28;20032;-85
2021/11/29 09:50:08;;;;;;;0.40;0.40;;;;;;;7.72;100.00;95627.66;5076836;28;20056;-84
2021/11/29 09:52:43;;;;;;;3.83;0.88;;;;;;;7.81;100.00;95632.25;5068273;28;20123;-86
2021/11/29 09:55:23;;;;;;;0.10;0.10;;;;;;;7.65;100.00;95613.19;5077133;28;20024;-86
2021/11/29 09:57:50;;;;;;;0.63;0.38;;;;;;;8.07;100.00;95705.50;5076777;28;20020;-86
2021/11/29 10:00:49;;;;;;;0.57;0.28;;;;;;;7.59;100.00;95653.59;5061464;28;20031;-87
2021/11/29 10:03:15;;;;;;;1.20;1.10;;;;;;;7.88;100.00;95702.63;5075543;28;20141;-86
2021/11/29 10:05:44;;;;;;;0.60;0.50;;;;;;;7.70;100.00;95656.22;5091602;28;20036;-86
2021/11/29 10:08:36;;;;;;;0.57;0.57;;;;;;;7.83;100.00;95640.94;5076573;28;20028;-85
2021/11/29 10:11:11;;;;;;;0.32;0.32;;;;;;;8.13;100.00;95617.13;5067481;28;20056;-85
2021/11/29 10:13:56;;;;;;;0.40;0.40;;;;;;;8.42;100.00;95573.91;5063059;28;20107;-84
2021/11/29 10:16:40;;;;;;;0.22;0.20;;;;;;;9.12;100.00;95657.50;5074741;28;20032;-86
2021/11/29 10:19:31;;;;;;;0.55;0.38;;;;;;;9.07;100.00;95646.41;5076817;28;20032;-86
2021/11/29 10:22:23;;;;;;;7.07;3.63;;;;;;;9.04;100.00;95667.16;5078413;28;20166;-86
2021/11/29 10:24:51;;;;;;;0.77;0.65;;;;;;;8.71;100.00;95655.72;5068603;28;20051;-86
2021/11/29 10:27:18;;;;;;;0.17;0.17;;;;;;;8.50;100.00;95619.38;5067215;28;20456;-86
2021/11/29 10:29:52;;;;;;;0.10;0.10;;;;;;;8.57;100.00;95658.72;5090612;28;20596;-85
2021/11/29 10:32:32;;;;;;;0.55;0.55;;;;;;;8.64;100.00;95656.38;5057961;28;20032;-85
2021/11/29 10:34:58;;;;;;;0.55;0.43;;;;;;;8.64;100.00;95629.75;5080629;28;20111;-86
2021/11/29 10:37:36;;;;;;;0.55;0.55;;;;;;;8.76;100.00;95638.50;5069939;28;20060;-86
2021/11/29 10:40:07;;;;;;;0.10;0.10;;;;;;;8.74;100.00;95649.28;5062713;28;20036;-87
2021/11/29 10:42:33;;;;;;;1.05;0.55;;;;;;;8.72;100.00;95656.56;5065007;28;20062;-87
2021/11/29 10:44:59;;;;;;;3.95;2.65;;;;;;;8.71;100.00;95663.72;5065133;28;20062;-86
2021/11/29 10:47:27;;;;;;;2.03;0.82;;;;;;;8.42;100.00;95643.19;5075022;28;20052;-85
2021/11/29 10:49:55;;;;;;;1.52;1.30;;;;;;;8.44;100.00;95652.72;5066905;28;20056;-85
2021/11/29 10:52:24;;;;;;;0.40;0.40;;;;;;;8.62;100.00;95683.16;5072147;28;20110;-86
2021/11/29 10:54:52;;;;;;;0.90;0.75;;;;;;;8.61;100.00;95659.31;5065163;28;20115;-86
2021/11/29 10:57:18;;;;;;;1.15;0.50;;;;;;;8.85;100.00;95681.22;5083191;28;20077;-86
2021/11/29 10:59:46;;;;;;;0.40;0.40;;;;;;;8.91;100.00;95685.16;5071729;28;20024;-85
2021/11/29 11:02:17;;;;;;;0.20;0.20;;;;;;;8.54;100.00;95653.66;5068789;28;20036;-85
2021/11/29 11:04:48;;;;;;;0.30;0.30;;;;;;;8.80;100.00;95691.41;5070410;28;20115;-85
2021/11/29 11:07:21;;;;;;;0.60;0.60;;;;;;;8.66;100.00;95665.09;5055701;28;20025;-84
2021/11/29 11:09:50;;;;;;;0.52;0.52;;;;;;;8.73;100.00;95668.94;5071603;28;20053;-85
2021/11/29 11:12:16;;;;;;;0.57;0.30;;;;;;;8.55;100.00;95633.19;5087119;28;20520;-86
2021/11/29 11:14:50;;;;;;;0.20;0.20;;;;;;;8.40;100.00;95618.50;5075272;28;20112;-87
2021/11/29 11:17:17;;;;;;;0.32;0.32;;;;;;;8.43;100.00;95624.38;5062662;28;20028;-86
2021/11/29 11:19:55;;;;;;;0.20;0.20;;;;;;;8.31;100.00;95609.44;5067401;28;20024;-86
2021/11/29 11:22:29;;;;;;;0.10;0.10;;;;;;;8.71;100.00;95646.88;5064335;28;20024;-86
2021/11/29 11:25:02;;;;;;;0.30;0.30;;;;;;;8.76;100.00;95631.34;5073968;28;20131;-86
2021/11/29 11:27:42;;;;;;;0.47;0.47;;;;;;;8.93;100.00;95638.75;5063014;28;20028;-85
2021/11/29 11:30:16;;;;;;;0.45;0.45;;;;;;;8.90;100.00;95625.66;5074679;28;20031;-87
2021/11/29 11:32:45;;;;;;;0.50;0.50;;;;;;;9.34;100.00;95685.00;5071389;28;20456;-86
2021/11/29 11:35:11;;;;;;;0.63;0.63;;;;;;;9.44;100.00;95681.41;5089346;28;21039;-87
2021/11/29 11:37:43;;;;;;;3.80;1.92;;;;;;;8.92;100.00;95618.38;5074055;28;20040;-85
2021/11/29 11:40:15;;;;;;;0.43;0.32;;;;;;;9.02;100.00;95640.59;5057492;28;20053;-86
2021/11/29 11:42:42;;;;;;;0.22;0.22;;;;;;;9.12;100.00;95659.31;5060663;28;20036;-85
2021/11/29 11:45:14;;;;;;;0.22;0.22;;;;;;;9.01;100.00;95651.41;5066878;28;20067;-86
2021/11/29 11:47:44;;;;;;;0.47;0.40;;;;;;;8.81;100.00;95631.78;5071295;28;20043;-85
2021/11/29 11:50:12;;;;;;;0.13;0.13;;;;;;;8.92;100.00;95615.72;5058442;28;20443;-85
2021/11/29 11:52:38;;;;;;;0.65;0.25;;;;;;;9.16;100.00;95634.94;5068182;28;20092;-84
2021/11/29 11:55:05;;;;;;;1.08;0.45;;;;;;;9.19;100.00;95644.50;5066465;28;20459;-86
2021/11/29 11:57:32;;;;;;;0.22;0.22;;;;;;;9.18;100.00;95643.66;5071315;28;20410;-85
2021/11/29 12:00:11;;;;;;;0.15;0.15;;;;;;;9.75;100.00;95653.66;5056747;28;20033;-85
2021/11/29 12:02:50;;;;;;;0.20;0.20;;;;;;;10.17;100.00;95650.84;5047167;28;20032;-86
2021/11/29 12:05:16;;;;;;;1.75;0.63;;;;;;;10.63;100.00;95634.09;5080611;28;20108;-86
2021/11/29 12:07:43;;;;;;;0.38;0.38;;;;;;;10.76;100.00;95610.59;5072419;28;20039;-85
2021/11/29 12:10:27;;;;;;;0.63;0.60;;;;;;;10.87;100.00;95643.34;5056782;28;20033;-86
2021/11/29 12:13:02;;;;;;;0.35;0.35;;;;;;;10.17;100.00;95600.94;5089171;28;20031;-86
2021/11/29 12:15:50;;;;;;;1.38;0.55;;;;;;;9.71;100.00;95598.03;5080173;28;20028;-86
2021/11/29 12:18:33;;;;;;;0.50;0.45;;;;;;;9.85;100.00;95635.00;5057749;28;20470;-85
2021/11/29 12:21:17;;;;;;;0.22;0.22;;;;;;;9.74;100.00;95624.47;5064372;28;20028;-84
2021/11/29 12:23:55;;;;;;;0.20;0.20;;;;;;;9.66;100.00;95638.47;5083320;28;20529;-85
2021/11/29 12:26:43;;;;;;;0.10;0.10;;;;;;;9.66;100.00;95648.31;5068155;28;20387;-86
2021/11/29 12:29:24;;;;;;;0.20;0.20;;;;;;;9.46;100.00;95628.72;5082868;28;20020;-86
2021/11/29 12:32:09;;;;;;;0.60;0.60;;;;;;;9.50;100.00;95639.97;5070522;28;20174;-86
2021/11/29 12:34:50;;;;;;;0.10;0.10;;;;;;;9.40;100.00;95653.28;5057862;28;20036;-86
2021/11/29 12:37:23;;;;;;;0.20;0.20;;;;;;;9.40;100.00;95676.44;5075799;28;20036;-86
2021/11/29 12:39:54;;;;;;;0.08;0.08;;;;;;;9.21;100.00;95656.72;5064485;28;20032;-86
2021/11/29 12:42:20;;;;;;;1.88;0.80;;;;;;;9.32;100.00;95682.44;5075482;28;20031;-86
2021/11/29 12:44:53;;;;;;;1.33;1.25;;;;;;;9.39;100.00;95704.94;5080974;28;20032;-86
2021/11/29 12:47:32;;;;;;;0.70;0.70;;;;;;;9.27;100.00;95690.84;5072077;28;20043;-87
2021/11/29 12:50:07;;;;;;;2.75;0.93;;;;;;;9.43;100.00;95716.19;5079067;28;20028;-86
2021/11/29 12:52:39;;;;;;;2.50;1.58;;;;;;;9.41;100.00;95708.34;5069002;28;20025;-85
2021/11/29 12:55:17;;;;;;;2.95;2.08;;;;;;;8.91;100.00;95632.69;5058128;28;20033;-85